Time;durP1;ratioP1;P1;durP2;ratioP2;P2;SDS_P1;SDS_P2;PMS_P1;PMS_P2;Temp;Humidity;BMP_temperature;BMP_pressure;BME280_temperature;BME280_humidity;BME280_pressure;Samples;Min_cycle;Max_cycle;Signal;HPM_P1;HPM_P2
2022/06/11 00:01:24;;;;;;;10.68;6.20;;;;;;;14.92;100.00;102072.25;5115806;28;20495;-73
2022/06/11 00:03:53;;;;;;;14.48;6.78;;;;;;;14.84;100.00;102065.44;5116133;28;20035;-73
2022/06/11 00:06:20;;;;;;;11.77;6.90;;;;;;;14.84;100.00;102078.56;5116417;28;20494;-73
2022/06/11 00:08:45;;;;;;;9.00;6.75;;;;;;;14.83;100.00;102071.59;5115438;28;20027;-73
2022/06/11 00:11:11;;;;;;;9.85;6.07;;;;;;;14.81;100.00;102073.38;5116831;28;20024;-73
2022/06/11 00:13:38;;;;;;;11.43;6.93;;;;;;;14.78;100.00;102073.44;5116414;27;20031;-73
2022/06/11 00:16:04;;;;;;;10.10;6.18;;;;;;;14.73;100.00;102071.78;5115574;28;20081;-73
2022/06/11 00:18:31;;;;;;;10.13;6.50;;;;;;;14.73;100.00;102073.56;5116176;28;20451;-73
2022/06/11 00:20:56;;;;;;;9.48;6.28;;;;;;;14.72;100.00;102075.31;5114898;28;20517;-73
2022/06/11 00:23:22;;;;;;;10.35;5.97;;;;;;;14.68;100.00;102063.16;5115359;28;20043;-73
2022/06/11 00:25:47;;;;;;;11.23;6.40;;;;;;;14.71;100.00;102075.34;5115813;28;20564;-73
2022/06/11 00:28:13;;;;;;;10.35;6.85;;;;;;;14.66;100.00;102070.19;5115463;28;20027;-73
2022/06/11 00:30:39;;;;;;;10.15;6.60;;;;;;;14.64;100.00;102063.25;5116011;28;20031;-73
2022/06/11 00:33:07;;;;;;;15.65;7.15;;;;;;;14.64;100.00;102064.09;5115611;28;20023;-73
2022/06/11 00:35:35;;;;;;;10.30;7.35;;;;;;;14.61;100.00;102066.78;5115313;28;20379;-73
2022/06/11 00:38:00;;;;;;;13.57;6.88;;;;;;;14.61;100.00;102074.66;5115790;28;20445;-73
2022/06/11 00:40:28;;;;;;;9.45;6.72;;;;;;;14.57;100.00;102075.63;5116049;28;20024;-73
2022/06/11 00:42:53;;;;;;;11.25;7.13;;;;;;;14.54;100.00;102065.19;5114853;27;20016;-73
2022/06/11 00:45:24;;;;;;;10.93;7.07;;;;;;;14.55;100.00;102058.19;5115766;28;20467;-73
2022/06/11 00:47:58;;;;;;;12.32;7.43;;;;;;;14.50;100.00;102067.03;5115354;28;20024;-73
2022/06/11 00:50:39;;;;;;;14.10;8.15;;;;;;;14.49;100.00;102067.91;5115066;28;20051;-73
2022/06/11 00:53:12;;;;;;;12.60;7.38;;;;;;;14.50;100.00;102055.63;5115266;28;20111;-73
2022/06/11 00:55:38;;;;;;;14.15;7.55;;;;;;;14.48;100.00;102057.41;5115309;28;20023;-74
2022/06/11 00:58:08;;;;;;;10.45;7.00;;;;;;;14.47;100.00;102058.31;5114368;28;20544;-73
2022/06/11 01:00:41;;;;;;;10.63;7.03;;;;;;;14.48;100.00;102060.03;5115884;27;20024;-73
2022/06/11 01:03:11;;;;;;;17.23;7.30;;;;;;;14.46;100.00;102061.84;5115600;28;20026;-73
2022/06/11 01:05:39;;;;;;;13.63;6.65;;;;;;;14.44;100.00;102058.38;5114553;28;20765;-73
2022/06/11 01:08:16;;;;;;;13.00;6.75;;;;;;;14.42;100.00;102062.78;5114869;28;20031;-73
2022/06/11 01:10:53;;;;;;;11.10;6.25;;;;;;;14.39;100.00;102050.63;5114368;28;20547;-73
2022/06/11 01:13:43;;;;;;;10.15;6.32;;;;;;;14.40;100.00;102056.72;5115004;28;20024;-73
2022/06/11 01:16:18;;;;;;;9.93;6.75;;;;;;;14.37;100.00;102051.53;5115495;27;20020;-73
2022/06/11 01:19:02;;;;;;;13.30;7.03;;;;;;;14.35;100.00;102055.94;5113941;28;20103;-73
2022/06/11 01:22:12;;;;;;;9.13;6.72;;;;;;;14.34;100.00;102059.47;5115194;28;20024;-73
2022/06/11 01:24:50;;;;;;;8.13;6.40;;;;;;;14.32;100.00;102054.22;5114186;28;20024;-73
2022/06/11 01:27:18;;;;;;;13.65;6.80;;;;;;;14.33;100.00;102055.13;5115167;28;20075;-73
2022/06/11 01:30:05;;;;;;;11.80;7.25;;;;;;;14.31;100.00;102054.28;5114725;28;20376;-73
2022/06/11 01:32:41;;;;;;;9.27;7.72;;;;;;;14.29;100.00;102055.19;5113942;28;20022;-73
2022/06/11 01:35:40;;;;;;;10.85;7.63;;;;;;;14.28;100.00;102048.19;5114737;28;20062;-73
2022/06/11 01:38:21;;;;;;;12.85;7.65;;;;;;;14.24;100.00;102046.53;5114875;28;20219;-73
2022/06/11 01:41:17;;;;;;;14.75;7.25;;;;;;;14.21;100.00;102046.56;5113596;28;20016;-73
2022/06/11 01:43:45;;;;;;;10.52;7.03;;;;;;;14.20;100.00;102036.13;5114170;28;20122;-73
2022/06/11 01:46:26;;;;;;;12.57;7.88;;;;;;;14.18;100.00;102046.63;5113711;28;20028;-73
2022/06/11 01:48:59;;;;;;;11.05;7.32;;;;;;;14.18;100.00;102030.91;5114179;28;20051;-73
2022/06/11 01:51:51;;;;;;;13.98;7.95;;;;;;;14.20;100.00;102038.75;5114580;28;20425;-73
2022/06/11 01:54:41;;;;;;;12.15;6.85;;;;;;;14.18;100.00;102044.00;5113694;28;20406;-73
2022/06/11 01:57:15;;;;;;;11.27;6.68;;;;;;;14.15;100.00;102040.59;5114161;28;20047;-73
2022/06/11 02:00:12;;;;;;;11.30;6.65;;;;;;;14.12;100.00;102041.50;5113302;28;20042;-73
2022/06/11 02:03:03;;;;;;;9.05;6.65;;;;;;;14.07;100.00;102038.13;5114243;28;20036;-73
2022/06/11 02:06:06;;;;;;;10.70;5.93;;;;;;;14.04;100.00;102049.53;5114147;28;20066;-73
2022/06/11 02:08:46;;;;;;;11.95;6.20;;;;;;;14.05;100.00;102042.50;5113195;28;20049;-73
2022/06/11 02:11:16;;;;;;;11.98;6.93;;;;;;;14.03;100.00;102047.81;5114236;28;20119;-73
2022/06/11 02:13:53;;;;;;;9.10;6.53;;;;;;;14.07;100.00;102043.38;5112868;28;20467;-73
2022/06/11 02:16:28;;;;;;;9.75;6.40;;;;;;;14.05;100.00;102046.00;5114242;28;20030;-73
2022/06/11 02:18:56;;;;;;;10.52;6.55;;;;;;;14.04;100.00;102044.28;5113668;28;20023;-73
2022/06/11 02:21:30;;;;;;;11.30;6.32;;;;;;;14.03;100.00;102047.81;5113286;28;20110;-73
2022/06/11 02:24:10;;;;;;;8.05;5.97;;;;;;;13.95;100.00;102044.44;5113804;28;20030;-73
2022/06/11 02:26:43;;;;;;;9.82;6.68;;;;;;;13.97;100.00;102053.16;5113970;28;20035;-73
2022/06/11 02:29:09;;;;;;;8.90;5.68;;;;;;;13.93;100.00;102050.59;5113098;28;20019;-73
2022/06/11 02:31:41;;;;;;;7.28;5.70;;;;;;;13.91;100.00;102052.41;5113659;28;20035;-73
2022/06/11 02:34:08;;;;;;;10.45;5.90;;;;;;;13.88;100.00;102063.81;5113770;28;20031;-73
2022/06/11 02:36:54;;;;;;;7.47;5.93;;;;;;;13.87;100.00;102062.09;5113030;27;20386;-73
2022/06/11 02:39:20;;;;;;;7.20;5.38;;;;;;;13.82;100.00;102070.00;5113784;28;20024;-73
2022/06/11 02:41:47;;;;;;;7.68;5.60;;;;;;;13.77;100.00;102063.13;5113037;28;20038;-73
2022/06/11 02:44:12;;;;;;;9.15;6.13;;;;;;;13.75;100.00;102065.78;5112678;28;20028;-73
2022/06/11 02:46:43;;;;;;;11.32;5.70;;;;;;;13.75;100.00;102062.28;5113674;28;20024;-73
2022/06/11 02:49:23;;;;;;;10.10;6.25;;;;;;;13.69;100.00;102060.63;5112582;28;20530;-73
2022/06/11 02:51:51;;;;;;;7.75;5.75;;;;;;;13.72;100.00;102070.22;5113448;28;20024;-73
2022/06/11 02:54:19;;;;;;;10.80;6.65;;;;;;;13.69;100.00;102071.13;5113352;28;20103;-73
2022/06/11 02:56:46;;;;;;;8.82;6.40;;;;;;;13.70;100.00;102070.25;5111879;28;20093;-73
2022/06/11 02:59:11;;;;;;;8.45;6.60;;;;;;;13.72;100.00;102068.44;5113190;28;20376;-73
2022/06/11 03:01:37;;;;;;;10.13;5.85;;;;;;;13.71;100.00;102071.97;5113431;28;20049;-73
2022/06/11 03:04:03;;;;;;;9.25;6.32;;;;;;;13.74;100.00;102079.78;5112155;28;20034;-73
2022/06/11 03:06:29;;;;;;;7.45;6.05;;;;;;;13.74;100.00;102069.28;5113475;28;20028;-73
2022/06/11 03:08:56;;;;;;;7.80;6.30;;;;;;;13.75;100.00;102075.41;5113015;28;20024;-73
2022/06/11 03:11:21;;;;;;;11.88;6.32;;;;;;;13.81;100.00;102075.28;5112484;28;20027;-73
2022/06/11 03:13:47;;;;;;;11.05;6.18;;;;;;;13.86;100.00;102075.19;5112681;28;20039;-73
2022/06/11 03:16:12;;;;;;;11.38;6.18;;;;;;;13.96;100.00;102076.75;5113251;28;20073;-73
2022/06/11 03:18:38;;;;;;;12.75;6.32;;;;;;;14.03;100.00;102079.28;5112484;28;20483;-73
2022/06/11 03:21:04;;;;;;;7.88;5.55;;;;;;;14.11;100.00;102089.59;5113051;28;20027;-73
2022/06/11 03:23:29;;;;;;;8.00;5.70;;;;;;;14.18;100.00;102090.34;5113166;28;20085;-73
2022/06/11 03:25:56;;;;;;;8.73;6.10;;;;;;;14.21;100.00;102088.53;5111870;28;20024;-73
2022/06/11 03:28:25;;;;;;;8.05;5.05;;;;;;;14.26;100.00;102093.72;5113289;28;20020;-73
2022/06/11 03:30:51;;;;;;;9.77;6.07;;;;;;;14.35;100.00;102097.91;5112896;28;20115;-73
2022/06/11 03:33:17;;;;;;;10.82;6.10;;;;;;;14.39;100.00;102096.97;5112294;28;20045;-73
2022/06/11 03:35:44;;;;;;;7.15;5.25;;;;;;;14.46;100.00;102102.06;5112760;28;20023;-73
2022/06/11 03:38:11;;;;;;;10.13;5.25;;;;;;;14.48;100.00;102091.53;5112083;28;20043;-73
2022/06/11 03:40:37;;;;;;;9.75;5.28;;;;;;;14.55;100.00;102100.16;5113039;28;20047;-73
2022/06/11 03:43:02;;;;;;;7.53;5.45;;;;;;;14.57;100.00;102104.50;5112799;28;20434;-73
2022/06/11 03:45:28;;;;;;;8.98;5.70;;;;;;;14.64;100.00;102106.09;5112088;28;20090;-73
2022/06/11 03:47:53;;;;;;;9.32;5.40;;;;;;;14.65;100.00;102107.84;5112580;28;20043;-73
2022/06/11 03:50:25;;;;;;;7.20;4.93;;;;;;;14.66;100.00;102112.19;5112843;28;20072;-73
2022/06/11 03:52:51;;;;;;;8.18;4.53;;;;;;;14.71;100.00;102123.47;5111713;28;20020;-73
2022/06/11 03:55:17;;;;;;;5.65;4.65;;;;;;;14.72;100.00;102122.56;5113382;28;20026;-73
2022/06/11 03:57:44;;;;;;;8.23;5.15;;;;;;;14.77;100.00;102126.84;5116239;27;20127;-73
2022/06/11 04:00:13;;;;;;;7.55;4.63;;;;;;;14.77;100.00;102132.09;5115900;28;20095;-73
2022/06/11 04:02:38;;;;;;;6.30;4.78;;;;;;;14.78;100.00;102121.59;5116529;28;20035;-73
2022/06/11 04:05:05;;;;;;;7.40;4.85;;;;;;;14.85;100.00;102135.44;5116256;28;20028;-73
2022/06/11 04:07:31;;;;;;;8.65;5.18;;;;;;;14.84;100.00;102125.81;5115647;28;20056;-73
2022/06/11 04:09:57;;;;;;;6.03;4.65;;;;;;;14.86;100.00;102134.53;5116369;28;20024;-73
2022/06/11 04:12:23;;;;;;;5.30;4.50;;;;;;;14.84;100.00;102131.06;5116616;28;20020;-73
2022/06/11 04:14:50;;;;;;;7.43;4.50;;;;;;;14.88;100.00;102138.88;5115297;28;20028;-73
2022/06/11 04:17:36;;;;;;;7.88;4.75;;;;;;;14.91;100.00;102140.56;5116208;28;20379;-73
2022/06/11 04:20:03;;;;;;;5.68;4.70;;;;;;;14.88;100.00;102140.66;5115383;28;20031;-73
2022/06/11 04:22:28;;;;;;;8.07;4.95;;;;;;;14.93;100.00;102141.41;5115608;27;20102;-73
2022/06/11 04:24:53;;;;;;;8.52;4.93;;;;;;;14.96;100.00;102152.69;5115838;28;20119;-73
2022/06/11 04:27:20;;;;;;;8.38;5.00;;;;;;;14.98;100.00;102147.44;5115469;28;20030;-73
2022/06/11 04:29:50;;;;;;;9.43;4.85;;;;;;;15.01;100.00;102142.13;5115692;28;20409;-73
2022/06/11 04:32:17;;;;;;;6.30;4.78;;;;;;;15.05;100.00;102141.16;5116015;28;20024;-73
2022/06/11 04:34:45;;;;;;;5.13;4.63;;;;;;;15.08;100.00;102154.22;5114760;28;20402;-73
2022/06/11 04:37:14;;;;;;;5.20;4.28;;;;;;;15.16;100.00;102152.25;5116070;28;20062;-73
2022/06/11 04:39:43;;;;;;;5.78;4.68;;;;;;;15.22;100.00;102149.50;5116018;28;20026;-73
2022/06/11 04:42:11;;;;;;;5.25;4.30;;;;;;;15.28;100.00;102153.78;5114875;28;20409;-73
2022/06/11 04:44:40;;;;;;;5.05;3.85;;;;;;;15.28;100.00;102155.53;5115901;28;20042;-73
2022/06/11 04:47:07;;;;;;;7.40;4.13;;;;;;;15.30;100.00;102156.34;5115749;28;20028;-73
2022/06/11 04:49:32;;;;;;;6.55;3.80;;;;;;;15.27;100.00;102151.16;5115036;28;20099;-73
2022/06/11 04:51:58;;;;;;;5.53;4.15;;;;;;;15.38;100.00;102157.91;5115536;28;20047;-73
2022/06/11 04:54:24;;;;;;;6.30;4.30;;;;;;;15.42;100.00;102161.34;5115461;28;20038;-73
2022/06/11 04:56:50;;;;;;;7.60;4.40;;;;;;;15.44;100.00;102155.16;5114557;28;20058;-73
2022/06/11 04:59:15;;;;;;;6.03;4.28;;;;;;;15.43;100.00;102150.81;5115429;28;20019;-73
2022/06/11 05:01:42;;;;;;;8.32;4.68;;;;;;;15.58;100.00;102162.72;5115075;28;20052;-73
2022/06/11 05:04:09;;;;;;;7.18;3.88;;;;;;;15.63;100.00;102163.47;5114538;28;20509;-73
2022/06/11 05:06:39;;;;;;;6.60;4.40;;;;;;;15.71;100.00;102160.69;5115576;28;20447;-73
2022/06/11 05:09:06;;;;;;;7.32;4.65;;;;;;;15.81;100.00;102163.97;5114735;28;20020;-73
2022/06/11 05:11:31;;;;;;;6.00;4.13;;;;;;;15.86;100.00;102162.09;5114709;28;20110;-73
2022/06/11 05:13:57;;;;;;;8.00;4.20;;;;;;;15.94;100.00;102165.41;5114846;28;20123;-73
2022/06/11 05:16:22;;;;;;;9.05;4.70;;;;;;;15.95;100.00;102164.47;5115095;28;20480;-73
2022/06/11 05:18:48;;;;;;;7.07;4.35;;;;;;;15.99;99.56;102163.53;5113961;28;20126;-73
2022/06/11 05:21:14;;;;;;;7.45;4.10;;;;;;;16.03;99.50;102165.16;5115218;28;20030;-73
2022/06/11 05:23:39;;;;;;;6.50;3.95;;;;;;;16.02;99.81;102165.19;5114357;28;20020;-73
2022/06/11 05:26:06;;;;;;;6.90;4.47;;;;;;;15.99;93.85;102165.28;5114629;28;20502;-73
2022/06/11 05:28:33;;;;;;;6.72;3.85;;;;;;;16.04;97.05;102161.63;5115007;28;20103;-73
2022/06/11 05:30:59;;;;;;;8.35;4.55;;;;;;;16.05;95.75;102171.25;5113719;28;20102;-73
2022/06/11 05:33:25;;;;;;;8.10;3.75;;;;;;;16.03;96.50;102165.16;5114968;28;20383;-73
2022/06/11 05:35:52;;;;;;;6.50;3.88;;;;;;;16.00;97.63;102167.00;5114611;28;20020;-73
2022/06/11 05:38:22;;;;;;;10.23;4.85;;;;;;;15.96;96.40;102168.88;5114006;28;20092;-73
2022/06/11 05:40:48;;;;;;;8.10;3.75;;;;;;;15.85;95.81;102168.25;5114450;28;20047;-73
2022/06/11 05:43:15;;;;;;;7.68;4.53;;;;;;;15.75;96.88;102169.38;5114831;28;20475;-73
2022/06/11 05:46:09;;;;;;;9.35;4.03;;;;;;;15.67;96.49;102185.34;5113488;28;20376;-73
2022/06/11 05:48:39;;;;;;;8.93;4.73;;;;;;;15.57;93.80;102176.78;5114526;28;20494;-73
2022/06/11 05:51:06;;;;;;;10.40;4.10;;;;;;;15.71;97.63;102173.84;5114179;28;20277;-73
2022/06/11 05:53:36;;;;;;;8.85;4.00;;;;;;;15.95;95.52;102172.38;5113572;28;20411;-73
2022/06/11 05:56:03;;;;;;;11.63;4.13;;;;;;;16.10;93.39;102172.00;5114016;28;20056;-73
2022/06/11 05:58:35;;;;;;;9.82;4.18;;;;;;;16.13;92.50;102173.69;5114491;28;20077;-73
2022/06/11 06:01:03;;;;;;;11.48;4.68;;;;;;;16.20;91.15;102158.63;5113305;28;20467;-73
2022/06/11 06:03:28;;;;;;;11.23;4.40;;;;;;;16.29;91.84;102161.88;5114418;28;20390;-73
2022/06/11 06:05:53;;;;;;;12.02;3.85;;;;;;;16.47;89.96;102178.06;5113015;28;20023;-73
2022/06/11 06:08:18;;;;;;;8.25;3.60;;;;;;;16.60;88.86;102176.81;5114164;28;20024;-73
2022/06/11 06:10:44;;;;;;;9.60;3.58;;;;;;;16.71;84.04;102181.78;5113804;28;20023;-73
2022/06/11 06:15:53;;;;;;;10.70;3.20;;;;;;;16.72;83.46;102180.91;5113905;28;20539;-73
2022/06/11 06:18:20;;;;;;;8.75;3.35;;;;;;;16.65;84.90;102190.75;5113997;28;20020;-74
2022/06/11 06:20:47;;;;;;;11.32;3.45;;;;;;;16.66;83.65;102194.22;5112070;28;20026;-73
2022/06/11 06:23:12;;;;;;;14.80;3.75;;;;;;;16.62;81.23;102186.41;5114076;28;20066;-74
2022/06/11 06:25:38;;;;;;;9.68;3.13;;;;;;;16.76;83.57;102191.34;5114036;28;20047;-74
2022/06/11 06:28:04;;;;;;;17.95;3.85;;;;;;;16.95;82.28;102196.94;5112834;28;20019;-73
2022/06/11 06:30:29;;;;;;;10.82;3.40;;;;;;;17.14;82.12;102193.78;5113742;28;20032;-73
2022/06/11 06:32:55;;;;;;;10.98;3.67;;;;;;;17.36;81.58;102191.34;5113656;28;20099;-74
2022/06/11 06:35:20;;;;;;;11.75;3.90;;;;;;;17.49;78.16;102190.97;5112767;28;20028;-73
2022/06/11 06:37:45;;;;;;;15.75;3.97;;;;;;;17.58;76.48;102192.41;5113443;28;20031;-74
2022/06/11 06:40:11;;;;;;;13.38;3.70;;;;;;;17.63;76.79;102197.56;5113576;28;20068;-73
2022/06/11 06:42:37;;;;;;;15.50;3.58;;;;;;;17.63;76.51;102198.44;5112900;28;20023;-73
2022/06/11 06:45:02;;;;;;;13.07;3.45;;;;;;;17.59;78.36;102202.06;5113240;28;20034;-73
2022/06/11 06:47:28;;;;;;;17.98;3.70;;;;;;;17.53;77.31;102203.13;5113430;28;20023;-73
2022/06/11 06:49:54;;;;;;;12.82;3.63;;;;;;;17.57;78.24;102209.16;5112276;28;20103;-74
2022/06/11 06:52:20;;;;;;;15.50;3.40;;;;;;;17.68;75.51;102206.19;5113587;28;20026;-73
2022/06/11 06:54:45;;;;;;;16.73;3.90;;;;;;;17.61;76.79;102199.38;5113272;28;20118;-74
2022/06/11 06:57:10;;;;;;;15.20;3.72;;;;;;;17.58;74.10;102215.28;5112327;28;20136;-73
2022/06/11 06:59:36;;;;;;;13.55;3.47;;;;;;;17.63;76.63;102203.69;5113200;28;20031;-73
2022/06/11 07:02:01;;;;;;;14.82;3.95;;;;;;;17.64;78.58;102201.94;5112450;28;20017;-73
2022/06/11 07:04:26;;;;;;;16.35;3.90;;;;;;;17.45;78.84;102199.84;5113245;28;20069;-74
2022/06/11 07:06:51;;;;;;;15.55;4.00;;;;;;;17.26;78.61;102196.91;5113169;28;20034;-73
2022/06/11 07:09:17;;;;;;;15.20;4.47;;;;;;;17.22;75.88;102197.03;5112531;28;20031;-74
2022/06/11 07:11:42;;;;;;;15.13;3.38;;;;;;;17.45;77.41;102191.94;5113022;28;20036;-74
2022/06/11 07:14:07;;;;;;;14.50;4.13;;;;;;;17.74;78.09;102191.03;5113287;28;20023;-73
2022/06/11 07:16:40;;;;;;;13.60;3.67;;;;;;;17.78;77.46;102194.47;5112432;28;20098;-73
2022/06/11 07:19:14;;;;;;;16.55;3.92;;;;;;;17.75;78.53;102197.16;5113346;28;20375;-73
2022/06/11 07:21:43;;;;;;;18.63;3.90;;;;;;;17.77;73.63;102195.38;5113351;28;20072;-73
2022/06/11 07:24:17;;;;;;;13.80;3.80;;;;;;;17.84;74.70;102196.03;5112439;28;20027;-73
2022/06/11 07:26:48;;;;;;;17.90;4.85;;;;;;;17.96;74.32;102204.44;5112881;28;20387;-74
2022/06/11 07:29:20;;;;;;;12.38;3.88;;;;;;;18.07;74.63;102206.69;5113049;28;20032;-74
2022/06/11 07:31:47;;;;;;;15.88;3.75;;;;;;;18.33;75.04;102202.31;5114833;28;20028;-73
2022/06/11 07:34:15;;;;;;;14.15;3.65;;;;;;;18.61;74.12;102204.88;5117458;28;20047;-74
2022/06/11 07:36:41;;;;;;;17.40;4.13;;;;;;;18.83;73.93;102212.91;5116917;28;20027;-73
2022/06/11 07:39:06;;;;;;;18.73;4.35;;;;;;;19.03;69.39;102209.53;5116362;28;20028;-74
2022/06/11 07:41:32;;;;;;;18.80;4.05;;;;;;;19.21;68.39;102210.63;5117016;28;20187;-73
2022/06/11 07:43:57;;;;;;;18.92;4.20;;;;;;;19.28;68.27;102206.84;5116573;28;20030;-73
2022/06/11 07:46:22;;;;;;;14.05;3.65;;;;;;;19.28;68.94;102196.25;5116026;28;20020;-73
2022/06/11 07:48:48;;;;;;;17.10;4.65;;;;;;;19.22;68.64;102207.06;5116487;28;20030;-74
2022/06/11 07:51:18;;;;;;;17.52;4.35;;;;;;;19.14;69.92;102200.28;5116584;27;20463;-73
2022/06/11 07:53:47;;;;;;;15.60;3.75;;;;;;;19.27;69.08;102199.84;5116562;28;20038;-73
2022/06/11 07:56:13;;;;;;;14.73;3.83;;;;;;;19.21;69.84;102203.56;5116586;28;20039;-74
2022/06/11 07:58:38;;;;;;;17.15;4.53;;;;;;;19.09;68.92;102207.50;5115834;28;20035;-74
2022/06/11 08:01:05;;;;;;;18.83;4.97;;;;;;;19.14;69.57;102208.22;5116581;28;20024;-74
2022/06/11 08:03:32;;;;;;;16.30;4.72;;;;;;;19.24;70.06;102211.38;5116497;28;20058;-73
2022/06/11 08:05:58;;;;;;;19.05;4.30;;;;;;;19.11;69.56;102218.06;5115407;28;20459;-74
2022/06/11 08:08:25;;;;;;;14.40;4.47;;;;;;;18.75;67.42;102218.47;5116682;28;20031;-73
2022/06/11 08:10:51;;;;;;;13.18;4.32;;;;;;;18.65;70.95;102217.91;5116172;27;20031;-74
2022/06/11 08:13:19;;;;;;;16.40;4.15;;;;;;;18.79;69.80;102224.50;5115484;28;20020;-73
2022/06/11 08:15:47;;;;;;;17.10;4.40;;;;;;;18.83;70.73;102226.13;5116029;28;20463;-74
2022/06/11 08:18:13;;;;;;;17.23;4.72;;;;;;;18.98;69.13;102222.06;5116492;28;20035;-74
2022/06/11 08:20:38;;;;;;;15.68;4.20;;;;;;;19.04;69.25;102225.34;5115555;28;20015;-73
2022/06/11 08:23:06;;;;;;;15.88;4.82;;;;;;;19.21;70.25;102230.00;5115946;28;20032;-73
2022/06/11 08:25:32;;;;;;;19.88;4.35;;;;;;;19.37;68.14;102233.78;5116297;28;20027;-73
2022/06/11 08:27:58;;;;;;;16.70;4.63;;;;;;;19.32;68.72;102230.44;5114940;28;20055;-74
2022/06/11 08:30:26;;;;;;;15.82;4.38;;;;;;;19.11;67.31;102239.19;5116239;28;20122;-74
2022/06/11 08:32:52;;;;;;;21.58;5.07;;;;;;;18.84;70.75;102239.28;5115741;28;20020;-73
2022/06/11 08:35:22;;;;;;;16.77;4.30;;;;;;;18.91;71.10;102235.50;5115160;28;20083;-73
2022/06/11 08:37:47;;;;;;;18.17;3.80;;;;;;;19.29;69.90;102235.88;5115767;28;20027;-73
2022/06/11 08:40:39;;;;;;;16.88;4.30;;;;;;;20.00;69.01;102233.09;5115959;28;20039;-74
2022/06/11 08:43:18;;;;;;;17.08;3.72;;;;;;;20.79;68.36;102227.06;5114747;28;20020;-74
2022/06/11 08:46:00;;;;;;;18.35;5.13;;;;;;;21.26;69.12;102232.03;5115568;28;20072;-74
2022/06/11 08:48:39;;;;;;;23.15;5.22;;;;;;;21.71;62.64;102227.28;5114863;28;20491;-74
2022/06/11 08:51:09;;;;;;;12.35;4.10;;;;;;;21.91;61.08;102229.00;5115290;27;20027;-73
2022/06/11 08:53:38;;;;;;;21.65;5.10;;;;;;;22.07;57.86;102222.00;5115814;28;20027;-80
2022/06/11 08:56:05;;;;;;;14.10;3.90;;;;;;;22.10;56.99;102223.59;5114485;28;20039;-80
2022/06/11 08:58:43;;;;;;;15.20;4.82;;;;;;;22.31;59.55;102224.38;5115609;28;20068;-73
2022/06/11 09:01:34;;;;;;;14.57;3.88;;;;;;;22.46;59.78;102231.53;5115578;28;20034;-73
2022/06/11 09:04:11;;;;;;;14.43;3.60;;;;;;;22.29;55.97;102220.91;5114852;28;20028;-73
2022/06/11 09:07:16;;;;;;;15.88;3.78;;;;;;;21.99;59.79;102234.78;5115293;28;20487;-74
2022/06/11 09:09:54;;;;;;;16.02;3.70;;;;;;;21.81;56.39;102225.94;5114158;28;20028;-74
2022/06/11 09:12:36;;;;;;;13.98;4.20;;;;;;;21.99;58.49;102229.47;5115480;28;20053;-74
2022/06/11 09:15:11;;;;;;;17.95;3.80;;;;;;;22.21;56.59;102221.31;5114868;28;20080;-74
2022/06/11 09:17:57;;;;;;;13.65;3.58;;;;;;;22.14;55.70;102219.88;5114948;28;20440;-74
2022/06/11 09:20:25;;;;;;;15.10;3.90;;;;;;;21.92;58.33;102233.38;5115322;28;20032;-74
2022/06/11 09:23:08;;;;;;;18.15;3.95;;;;;;;21.64;56.46;102229.38;5114092;28;20027;-74
2022/06/11 09:25:47;;;;;;;13.95;3.92;;;;;;;21.38;58.02;102232.41;5115136;28;20027;-73
2022/06/11 09:28:38;;;;;;;12.77;3.53;;;;;;;21.25;58.97;102232.97;5114974;28;20373;-74
2022/06/11 09:31:12;;;;;;;14.68;3.92;;;;;;;20.99;60.20;102230.63;5113789;28;20447;-73
2022/06/11 09:33:53;;;;;;;14.65;4.20;;;;;;;20.80;59.94;102228.81;5114810;28;20069;-74
2022/06/11 09:36:29;;;;;;;15.52;4.25;;;;;;;20.42;57.03;102225.16;5114885;28;20027;-74
2022/06/11 09:39:10;;;;;;;20.52;3.95;;;;;;;20.35;60.60;102237.78;5113530;28;20092;-74
2022/06/11 09:41:51;;;;;;;13.05;3.53;;;;;;;20.40;57.45;102234.94;5114913;28;20023;-74
2022/06/11 09:44:19;;;;;;;18.73;4.18;;;;;;;20.46;58.62;102234.69;5113908;28;20027;-73
2022/06/11 09:46:55;;;;;;;17.30;4.40;;;;;;;20.81;63.94;102234.97;5114276;28;20020;-74
2022/06/11 09:50:01;;;;;;;15.55;4.72;;;;;;;21.08;59.59;102238.16;5114598;28;20455;-74
2022/06/11 09:52:55;;;;;;;15.27;4.40;;;;;;;21.17;61.92;102231.59;5113886;28;20031;-74
2022/06/11 09:55:35;;;;;;;16.90;4.55;;;;;;;21.38;60.99;102227.09;5114780;28;20032;-74
2022/06/11 09:58:16;;;;;;;17.17;4.18;;;;;;;21.46;60.13;102209.06;5113413;28;20039;-74
2022/06/11 10:00:57;;;;;;;16.90;4.38;;;;;;;21.66;58.71;102213.41;5114186;28;20063;-74
2022/06/11 10:03:39;;;;;;;24.40;5.20;;;;;;;21.74;59.26;102220.06;5114323;28;20019;-74
2022/06/11 10:06:17;;;;;;;18.67;4.63;;;;;;;21.82;60.66;102234.75;5113090;28;20463;-74
2022/06/11 10:08:53;;;;;;;15.57;3.70;;;;;;;22.08;57.27;102215.72;5113990;28;20199;-74
2022/06/11 10:11:28;;;;;;;18.80;4.30;;;;;;;22.34;56.69;102219.75;5114270;28;20070;-74
2022/06/11 10:14:28;;;;;;;15.75;4.35;;;;;;;22.39;50.41;102227.47;5113158;28;20040;-74
2022/06/11 10:16:53;;;;;;;12.55;3.55;;;;;;;22.23;57.15;102219.44;5113694;28;20485;-74
2022/06/11 10:19:32;;;;;;;11.07;3.10;;;;;;;22.23;54.40;102215.91;5113403;28;20042;-74
2022/06/11 10:22:04;;;;;;;10.57;3.47;;;;;;;22.10;54.18;102221.81;5113548;28;20417;-74
2022/06/11 10:24:34;;;;;;;16.77;3.00;;;;;;;22.15;54.44;102219.81;5113840;28;20016;-74
2022/06/11 10:27:14;;;;;;;10.57;3.20;;;;;;;22.23;59.69;102223.88;5112957;28;20028;-74
2022/06/11 10:29:50;;;;;;;16.95;3.75;;;;;;;22.27;57.08;102222.78;5113730;28;20459;-74
2022/06/11 10:32:37;;;;;;;16.77;3.70;;;;;;;22.35;57.29;102231.25;5113892;28;20111;-74
2022/06/11 10:35:10;;;;;;;12.18;3.72;;;;;;;22.35;55.44;102231.25;5112529;28;20050;-74
2022/06/11 10:37:41;;;;;;;9.40;3.15;;;;;;;22.40;51.00;102224.75;5113884;28;20031;-74
2022/06/11 10:40:08;;;;;;;10.32;3.17;;;;;;;22.49;52.39;102234.03;5112996;28;20023;-74
2022/06/11 10:42:39;;;;;;;10.05;3.50;;;;;;;22.43;49.01;102229.91;5113530;28;20037;-74
2022/06/11 10:45:05;;;;;;;11.05;3.38;;;;;;;22.47;54.26;102227.97;5113312;28;20024;-74
2022/06/11 10:47:40;;;;;;;17.85;3.75;;;;;;;22.73;53.40;102223.94;5112758;28;20379;-74
2022/06/11 10:50:11;;;;;;;15.90;3.95;;;;;;;23.02;53.24;102217.09;5113658;28;20031;-74
2022/06/11 10:52:46;;;;;;;8.50;3.00;;;;;;;23.20;53.54;102230.34;5113380;28;20027;-74
2022/06/11 10:55:32;;;;;;;14.30;3.47;;;;;;;23.24;51.58;102231.88;5112604;28;20077;-74
2022/06/11 10:58:04;;;;;;;9.95;2.45;;;;;;;23.10;48.04;102216.66;5098390;28;20491;-74
2022/06/11 11:00:54;;;;;;;8.68;3.10;;;;;;;23.20;50.59;102220.53;5113640;28;20019;-74
2022/06/11 11:03:41;;;;;;;11.75;3.22;;;;;;;23.45;50.30;102204.09;5112797;28;20047;-74
2022/06/11 11:06:09;;;;;;;12.25;2.78;;;;;;;23.66;53.08;102211.78;5112756;28;20028;-74
2022/06/11 11:08:49;;;;;;;10.65;2.83;;;;;;;23.92;53.00;102207.66;5112604;28;20038;-74
2022/06/11 11:11:15;;;;;;;10.45;3.00;;;;;;;24.25;53.45;102221.66;5113409;28;20089;-74
2022/06/11 11:13:44;;;;;;;13.00;3.40;;;;;;;24.49;50.62;102206.03;5112827;28;20027;-74
2022/06/11 11:16:12;;;;;;;9.18;3.70;;;;;;;24.68;49.07;102202.22;5112457;28;20107;-74
2022/06/11 11:18:43;;;;;;;12.57;3.50;;;;;;;24.97;50.28;102208.44;5113044;28;20455;-74
2022/06/11 11:21:24;;;;;;;16.88;3.20;;;;;;;25.21;48.88;102214.03;5113294;28;20015;-74
2022/06/11 11:23:53;;;;;;;10.45;3.42;;;;;;;25.26;45.59;102201.28;5112209;28;20036;-74
2022/06/11 11:26:41;;;;;;;13.60;3.30;;;;;;;25.50;49.46;102203.31;5113199;28;20035;-74
2022/06/11 11:29:23;;;;;;;11.77;3.63;;;;;;;25.39;49.03;102201.34;5113043;28;20019;-74
2022/06/11 11:31:57;;;;;;;9.40;3.23;;;;;;;25.82;45.94;102190.53;5112974;28;20031;-74
2022/06/11 11:34:24;;;;;;;12.55;3.67;;;;;;;25.95;49.08;102190.59;5113255;28;20297;-74
2022/06/11 11:36:57;;;;;;;12.82;3.65;;;;;;;25.89;47.69;102198.03;5112026;28;20098;-74
2022/06/11 11:39:29;;;;;;;10.43;3.60;;;;;;;26.19;47.80;102194.25;5113015;28;20020;-74